sensor_id;sensor_type;location;lat;lon;timestamp;P1;durP1;ratioP1;P2;durP2;ratioP2
32096;SDS011;18610;49.916;8.284;2022-08-03T00:00:54;6.57;;;1.67;;
32096;SDS011;18610;49.916;8.284;2022-08-03T00:03:21;6.88;;;2.20;;
32096;SDS011;18610;49.916;8.284;2022-08-03T00:05:48;6.45;;;2.17;;
32096;SDS011;18610;49.916;8.284;2022-08-03T00:08:16;9.05;;;2.65;;
32096;SDS011;18610;49.916;8.284;2022-08-03T00:10:43;18.27;;;3.60;;
32096;SDS011;18610;49.916;8.284;2022-08-03T00:13:10;6.07;;;2.30;;
32096;SDS011;18610;49.916;8.284;2022-08-03T00:15:38;4.07;;;2.83;;
32096;SDS011;18610;49.916;8.284;2022-08-03T00:18:05;9.30;;;1.83;;
32096;SDS011;18610;49.916;8.284;2022-08-03T00:20:32;4.10;;;1.58;;
32096;SDS011;18610;49.916;8.284;2022-08-03T00:22:59;3.17;;;2.20;;
32096;SDS011;18610;49.916;8.284;2022-08-03T00:25:27;3.83;;;2.03;;
32096;SDS011;18610;49.916;8.284;2022-08-03T00:27:54;7.40;;;2.20;;
32096;SDS011;18610;49.916;8.284;2022-08-03T00:30:20;5.95;;;2.33;;
32096;SDS011;18610;49.916;8.284;2022-08-03T00:32:47;6.32;;;2.15;;
32096;SDS011;18610;49.916;8.284;2022-08-03T00:35:14;3.05;;;1.95;;
32096;SDS011;18610;49.916;8.284;2022-08-03T00:37:41;6.05;;;2.35;;
32096;SDS011;18610;49.916;8.284;2022-08-03T00:40:09;5.18;;;1.80;;
32096;SDS011;18610;49.916;8.284;2022-08-03T00:42:46;9.32;;;2.28;;
32096;SDS011;18610;49.916;8.284;2022-08-03T00:45:14;3.80;;;2.00;;
32096;SDS011;18610;49.916;8.284;2022-08-03T00:47:42;3.55;;;2.40;;
32096;SDS011;18610;49.916;8.284;2022-08-03T00:50:09;3.00;;;1.88;;
32096;SDS011;18610;49.916;8.284;2022-08-03T00:52:35;3.38;;;2.25;;
32096;SDS011;18610;49.916;8.284;2022-08-03T00:55:03;8.02;;;2.17;;
32096;SDS011;18610;49.916;8.284;2022-08-03T00:57:30;5.30;;;2.15;;
32096;SDS011;18610;49.916;8.284;2022-08-03T00:59:59;4.45;;;2.40;;
32096;SDS011;18610;49.916;8.284;2022-08-03T01:02:26;7.65;;;2.28;;
32096;SDS011;18610;49.916;8.284;2022-08-03T01:04:53;2.97;;;2.15;;
32096;SDS011;18610;49.916;8.284;2022-08-03T01:07:22;7.28;;;2.55;;
32096;SDS011;18610;49.916;8.284;2022-08-03T01:09:59;9.45;;;2.00;;
32096;SDS011;18610;49.916;8.284;2022-08-03T01:12:34;6.38;;;2.30;;
32096;SDS011;18610;49.916;8.284;2022-08-03T01:15:07;4.55;;;1.98;;
32096;SDS011;18610;49.916;8.284;2022-08-03T01:17:41;9.05;;;2.63;;
32096;SDS011;18610;49.916;8.284;2022-08-03T01:20:14;6.85;;;2.40;;
32096;SDS011;18610;49.916;8.284;2022-08-03T01:22:59;6.60;;;2.45;;
32096;SDS011;18610;49.916;8.284;2022-08-03T01:25:39;13.10;;;2.17;;
32096;SDS011;18610;49.916;8.284;2022-08-03T01:28:32;6.90;;;2.42;;
32096;SDS011;18610;49.916;8.284;2022-08-03T01:31:16;5.85;;;2.05;;
32096;SDS011;18610;49.916;8.284;2022-08-03T01:33:48;4.03;;;2.20;;
32096;SDS011;18610;49.916;8.284;2022-08-03T01:36:21;5.25;;;2.28;;
32096;SDS011;18610;49.916;8.284;2022-08-03T01:38:52;6.53;;;2.03;;
32096;SDS011;18610;49.916;8.284;2022-08-03T01:41:21;2.85;;;1.65;;
32096;SDS011;18610;49.916;8.284;2022-08-03T01:43:54;4.28;;;2.33;;
32096;SDS011;18610;49.916;8.284;2022-08-03T01:46:26;7.68;;;2.10;;
32096;SDS011;18610;49.916;8.284;2022-08-03T01:48:54;4.60;;;2.25;;
32096;SDS011;18610;49.916;8.284;2022-08-03T01:51:22;9.57;;;2.03;;
32096;SDS011;18610;49.916;8.284;2022-08-03T01:53:49;7.90;;;2.25;;
32096;SDS011;18610;49.916;8.284;2022-08-03T01:56:19;5.75;;;2.17;;
32096;SDS011;18610;49.916;8.284;2022-08-03T01:58:49;6.65;;;2.65;;
32096;SDS011;18610;49.916;8.284;2022-08-03T02:01:17;4.57;;;2.72;;
32096;SDS011;18610;49.916;8.284;2022-08-03T02:03:48;6.85;;;2.63;;
32096;SDS011;18610;49.916;8.284;2022-08-03T02:06:16;8.90;;;3.05;;
32096;SDS011;18610;49.916;8.284;2022-08-03T02:08:46;6.75;;;2.55;;
32096;SDS011;18610;49.916;8.284;2022-08-03T02:11:14;9.20;;;3.05;;
32096;SDS011;18610;49.916;8.284;2022-08-03T02:13:41;5.78;;;3.13;;
32096;SDS011;18610;49.916;8.284;2022-08-03T02:16:11;8.60;;;3.08;;
32096;SDS011;18610;49.916;8.284;2022-08-03T02:18:39;11.52;;;3.33;;
32096;SDS011;18610;49.916;8.284;2022-08-03T02:21:09;13.75;;;3.10;;
32096;SDS011;18610;49.916;8.284;2022-08-03T02:23:38;9.68;;;2.60;;
32096;SDS011;18610;49.916;8.284;2022-08-03T02:26:07;8.07;;;3.00;;
32096;SDS011;18610;49.916;8.284;2022-08-03T02:28:40;22.60;;;2.95;;
32096;SDS011;18610;49.916;8.284;2022-08-03T02:31:11;10.50;;;3.55;;
32096;SDS011;18610;49.916;8.284;2022-08-03T02:33:42;9.27;;;3.05;;
32096;SDS011;18610;49.916;8.284;2022-08-03T02:36:27;8.73;;;2.80;;
32096;SDS011;18610;49.916;8.284;2022-08-03T02:38:57;10.93;;;3.43;;
32096;SDS011;18610;49.916;8.284;2022-08-03T02:41:27;11.15;;;3.60;;
32096;SDS011;18610;49.916;8.284;2022-08-03T02:43:57;7.40;;;2.60;;
32096;SDS011;18610;49.916;8.284;2022-08-03T02:46:29;7.70;;;3.17;;
32096;SDS011;18610;49.916;8.284;2022-08-03T02:48:59;12.63;;;3.50;;
32096;SDS011;18610;49.916;8.284;2022-08-03T02:51:29;15.10;;;3.53;;
32096;SDS011;18610;49.916;8.284;2022-08-03T02:53:59;7.37;;;3.30;;
32096;SDS011;18610;49.916;8.284;2022-08-03T02:56:27;8.02;;;3.55;;
32096;SDS011;18610;49.916;8.284;2022-08-03T02:58:56;9.10;;;3.30;;
32096;SDS011;18610;49.916;8.284;2022-08-03T03:01:25;11.65;;;3.72;;
32096;SDS011;18610;49.916;8.284;2022-08-03T03:03:54;9.98;;;3.88;;
32096;SDS011;18610;49.916;8.284;2022-08-03T03:06:22;10.23;;;3.50;;
32096;SDS011;18610;49.916;8.284;2022-08-03T03:08:52;7.78;;;3.80;;
32096;SDS011;18610;49.916;8.284;2022-08-03T03:11:21;10.57;;;3.13;;
32096;SDS011;18610;49.916;8.284;2022-08-03T03:13:50;9.63;;;4.32;;
32096;SDS011;18610;49.916;8.284;2022-08-03T03:16:17;13.20;;;3.70;;
32096;SDS011;18610;49.916;8.284;2022-08-03T03:18:46;10.40;;;3.75;;
32096;SDS011;18610;49.916;8.284;2022-08-03T03:21:15;12.65;;;4.05;;
32096;SDS011;18610;49.916;8.284;2022-08-03T03:23:44;17.77;;;4.15;;
32096;SDS011;18610;49.916;8.284;2022-08-03T03:26:13;6.32;;;3.35;;
32096;SDS011;18610;49.916;8.284;2022-08-03T03:28:41;15.63;;;4.40;;
32096;SDS011;18610;49.916;8.284;2022-08-03T03:31:09;6.65;;;3.50;;
32096;SDS011;18610;49.916;8.284;2022-08-03T03:33:36;9.55;;;3.47;;
32096;SDS011;18610;49.916;8.284;2022-08-03T03:36:04;10.52;;;3.78;;
32096;SDS011;18610;49.916;8.284;2022-08-03T03:38:31;6.57;;;3.70;;
32096;SDS011;18610;49.916;8.284;2022-08-03T03:40:59;12.77;;;4.28;;
32096;SDS011;18610;49.916;8.284;2022-08-03T03:43:27;11.40;;;4.07;;
32096;SDS011;18610;49.916;8.284;2022-08-03T03:45:54;10.73;;;3.85;;
32096;SDS011;18610;49.916;8.284;2022-08-03T03:48:23;9.77;;;3.72;;
32096;SDS011;18610;49.916;8.284;2022-08-03T03:50:50;9.30;;;3.83;;
32096;SDS011;18610;49.916;8.284;2022-08-03T03:53:17;8.88;;;3.78;;
32096;SDS011;18610;49.916;8.284;2022-08-03T03:55:44;8.82;;;4.57;;
32096;SDS011;18610;49.916;8.284;2022-08-03T03:58:11;11.13;;;4.32;;
32096;SDS011;18610;49.916;8.284;2022-08-03T04:00:40;14.75;;;4.13;;
32096;SDS011;18610;49.916;8.284;2022-08-03T04:03:09;8.65;;;3.55;;
32096;SDS011;18610;49.916;8.284;2022-08-03T04:05:37;8.73;;;3.77;;
32096;SDS011;18610;49.916;8.284;2022-08-03T04:08:21;11.05;;;3.90;;
32096;SDS011;18610;49.916;8.284;2022-08-03T04:11:08;6.55;;;3.53;;
32096;SDS011;18610;49.916;8.284;2022-08-03T04:13:41;15.35;;;3.97;;
32096;SDS011;18610;49.916;8.284;2022-08-03T04:16:13;4.57;;;3.45;;
32096;SDS011;18610;49.916;8.284;2022-08-03T04:18:43;8.45;;;4.20;;
32096;SDS011;18610;49.916;8.284;2022-08-03T04:21:14;6.85;;;3.60;;
32096;SDS011;18610;49.916;8.284;2022-08-03T04:23:45;10.38;;;3.38;;
32096;SDS011;18610;49.916;8.284;2022-08-03T04:26:15;11.05;;;4.13;;
32096;SDS011;18610;49.916;8.284;2022-08-03T04:28:46;8.20;;;4.40;;
32096;SDS011;18610;49.916;8.284;2022-08-03T04:31:16;22.27;;;4.13;;
32096;SDS011;18610;49.916;8.284;2022-08-03T04:33:47;9.30;;;4.13;;
32096;SDS011;18610;49.916;8.284;2022-08-03T04:36:18;5.47;;;3.60;;
32096;SDS011;18610;49.916;8.284;2022-08-03T04:38:51;10.32;;;4.22;;
32096;SDS011;18610;49.916;8.284;2022-08-03T04:41:24;5.43;;;3.13;;
32096;SDS011;18610;49.916;8.284;2022-08-03T04:43:53;14.35;;;4.13;;
32096;SDS011;18610;49.916;8.284;2022-08-03T04:46:22;8.25;;;3.40;;
32096;SDS011;18610;49.916;8.284;2022-08-03T04:48:53;6.00;;;4.22;;
32096;SDS011;18610;49.916;8.284;2022-08-03T04:51:20;11.45;;;3.38;;
32096;SDS011;18610;49.916;8.284;2022-08-03T04:53:47;15.82;;;4.40;;
32096;SDS011;18610;49.916;8.284;2022-08-03T04:56:14;10.55;;;3.90;;
32096;SDS011;18610;49.916;8.284;2022-08-03T04:58:41;13.65;;;3.58;;
32096;SDS011;18610;49.916;8.284;2022-08-03T05:01:08;7.03;;;3.53;;
32096;SDS011;18610;49.916;8.284;2022-08-03T05:03:37;9.68;;;3.55;;
32096;SDS011;18610;49.916;8.284;2022-08-03T05:06:04;7.28;;;4.10;;
32096;SDS011;18610;49.916;8.284;2022-08-03T05:08:31;21.60;;;3.95;;
32096;SDS011;18610;49.916;8.284;2022-08-03T05:10:58;6.68;;;3.78;;
32096;SDS011;18610;49.916;8.284;2022-08-03T05:13:24;13.80;;;4.03;;
32096;SDS011;18610;49.916;8.284;2022-08-03T05:15:51;15.90;;;4.35;;
32096;SDS011;18610;49.916;8.284;2022-08-03T05:18:18;10.80;;;3.70;;
32096;SDS011;18610;49.916;8.284;2022-08-03T05:20:46;8.25;;;3.38;;
32096;SDS011;18610;49.916;8.284;2022-08-03T05:23:13;16.52;;;3.80;;
32096;SDS011;18610;49.916;8.284;2022-08-03T05:25:40;10.88;;;4.15;;
32096;SDS011;18610;49.916;8.284;2022-08-03T05:28:07;8.77;;;3.83;;
32096;SDS011;18610;49.916;8.284;2022-08-03T05:30:35;13.07;;;3.40;;
32096;SDS011;18610;49.916;8.284;2022-08-03T05:33:02;9.43;;;4.05;;
32096;SDS011;18610;49.916;8.284;2022-08-03T05:35:29;9.77;;;3.20;;
32096;SDS011;18610;49.916;8.284;2022-08-03T05:37:58;6.28;;;3.22;;
32096;SDS011;18610;49.916;8.284;2022-08-03T05:40:25;7.03;;;3.78;;
32096;SDS011;18610;49.916;8.284;2022-08-03T05:42:51;5.20;;;3.03;;
32096;SDS011;18610;49.916;8.284;2022-08-03T05:45:18;9.65;;;3.92;;
32096;SDS011;18610;49.916;8.284;2022-08-03T05:47:46;10.77;;;3.45;;
32096;SDS011;18610;49.916;8.284;2022-08-03T05:50:15;6.22;;;3.90;;
32096;SDS011;18610;49.916;8.284;2022-08-03T05:52:43;3.60;;;2.80;;
32096;SDS011;18610;49.916;8.284;2022-08-03T05:55:11;3.92;;;2.63;;
32096;SDS011;18610;49.916;8.284;2022-08-03T05:57:39;7.72;;;3.20;;
32096;SDS011;18610;49.916;8.284;2022-08-03T06:00:07;3.45;;;2.50;;
32096;SDS011;18610;49.916;8.284;2022-08-03T06:02:35;6.88;;;3.20;;
32096;SDS011;18610;49.916;8.284;2022-08-03T06:05:02;7.05;;;3.85;;
32096;SDS011;18610;49.916;8.284;2022-08-03T06:07:30;5.57;;;3.10;;
32096;SDS011;18610;49.916;8.284;2022-08-03T06:09:57;6.03;;;2.75;;
32096;SDS011;18610;49.916;8.284;2022-08-03T06:12:27;7.68;;;3.10;;
32096;SDS011;18610;49.916;8.284;2022-08-03T06:14:54;7.95;;;3.38;;
32096;SDS011;18610;49.916;8.284;2022-08-03T06:17:21;4.45;;;2.78;;
32096;SDS011;18610;49.916;8.284;2022-08-03T06:19:50;3.83;;;2.63;;
32096;SDS011;18610;49.916;8.284;2022-08-03T06:22:18;3.45;;;2.55;;
32096;SDS011;18610;49.916;8.284;2022-08-03T06:24:45;4.45;;;2.97;;
32096;SDS011;18610;49.916;8.284;2022-08-03T06:27:11;4.45;;;2.55;;
32096;SDS011;18610;49.916;8.284;2022-08-03T06:29:40;5.18;;;3.08;;
32096;SDS011;18610;49.916;8.284;2022-08-03T06:32:06;6.57;;;3.15;;
32096;SDS011;18610;49.916;8.284;2022-08-03T06:34:33;4.28;;;2.80;;
32096;SDS011;18610;49.916;8.284;2022-08-03T06:37:00;5.57;;;3.00;;
32096;SDS011;18610;49.916;8.284;2022-08-03T06:39:27;5.88;;;2.90;;
32096;SDS011;18610;49.916;8.284;2022-08-03T06:41:54;11.02;;;2.83;;
32096;SDS011;18610;49.916;8.284;2022-08-03T06:44:21;3.70;;;2.45;;
32096;SDS011;18610;49.916;8.284;2022-08-03T06:46:49;4.97;;;3.40;;
32096;SDS011;18610;49.916;8.284;2022-08-03T06:49:17;11.82;;;3.28;;
32096;SDS011;18610;49.916;8.284;2022-08-03T06:51:44;6.40;;;2.40;;
32096;SDS011;18610;49.916;8.284;2022-08-03T06:54:10;10.43;;;2.83;;
32096;SDS011;18610;49.916;8.284;2022-08-03T06:56:37;6.30;;;2.63;;
32096;SDS011;18610;49.916;8.284;2022-08-03T06:59:04;7.63;;;2.83;;
32096;SDS011;18610;49.916;8.284;2022-08-03T07:01:31;11.25;;;2.83;;
32096;SDS011;18610;49.916;8.284;2022-08-03T07:03:59;6.40;;;2.38;;
32096;SDS011;18610;49.916;8.284;2022-08-03T07:06:26;9.68;;;3.45;;
32096;SDS011;18610;49.916;8.284;2022-08-03T07:08:53;15.07;;;3.03;;
32096;SDS011;18610;49.916;8.284;2022-08-03T07:11:20;7.85;;;2.70;;
32096;SDS011;18610;49.916;8.284;2022-08-03T07:13:47;11.73;;;3.33;;
32096;SDS011;18610;49.916;8.284;2022-08-03T07:16:14;7.82;;;2.47;;
32096;SDS011;18610;49.916;8.284;2022-08-03T07:18:41;5.25;;;2.50;;
32096;SDS011;18610;49.916;8.284;2022-08-03T07:21:09;11.85;;;3.10;;
32096;SDS011;18610;49.916;8.284;2022-08-03T07:23:36;9.13;;;3.10;;
32096;SDS011;18610;49.916;8.284;2022-08-03T07:26:03;8.32;;;2.92;;
32096;SDS011;18610;49.916;8.284;2022-08-03T07:28:30;9.77;;;3.53;;
32096;SDS011;18610;49.916;8.284;2022-08-03T07:30:57;8.93;;;3.33;;
32096;SDS011;18610;49.916;8.284;2022-08-03T07:33:23;7.47;;;3.03;;
32096;SDS011;18610;49.916;8.284;2022-08-03T07:35:50;7.78;;;2.97;;
32096;SDS011;18610;49.916;8.284;2022-08-03T07:38:19;12.02;;;3.25;;
32096;SDS011;18610;49.916;8.284;2022-08-03T07:40:45;5.60;;;2.60;;
32096;SDS011;18610;49.916;8.284;2022-08-03T07:43:12;7.18;;;3.30;;
32096;SDS011;18610;49.916;8.284;2022-08-03T07:45:39;8.80;;;2.78;;
32096;SDS011;18610;49.916;8.284;2022-08-03T07:48:06;4.68;;;2.83;;
32096;SDS011;18610;49.916;8.284;2022-08-03T07:50:33;4.47;;;2.75;;
32096;SDS011;18610;49.916;8.284;2022-08-03T07:53:03;13.88;;;3.60;;
32096;SDS011;18610;49.916;8.284;2022-08-03T07:55:31;11.10;;;3.00;;
32096;SDS011;18610;49.916;8.284;2022-08-03T07:57:59;8.93;;;3.05;;
32096;SDS011;18610;49.916;8.284;2022-08-03T08:00:27;6.72;;;2.83;;
32096;SDS011;18610;49.916;8.284;2022-08-03T08:02:54;12.82;;;3.38;;
32096;SDS011;18610;49.916;8.284;2022-08-03T08:05:21;13.50;;;3.50;;
32096;SDS011;18610;49.916;8.284;2022-08-03T08:07:48;6.05;;;2.80;;
32096;SDS011;18610;49.916;8.284;2022-08-03T08:10:15;9.52;;;2.47;;
32096;SDS011;18610;49.916;8.284;2022-08-03T08:12:43;6.57;;;2.85;;
32096;SDS011;18610;49.916;8.284;2022-08-03T08:15:10;9.73;;;2.58;;
32096;SDS011;18610;49.916;8.284;2022-08-03T08:17:40;12.13;;;2.97;;
32096;SDS011;18610;49.916;8.284;2022-08-03T08:20:08;10.93;;;2.75;;
32096;SDS011;18610;49.916;8.284;2022-08-03T08:22:36;5.45;;;2.72;;
32096;SDS011;18610;49.916;8.284;2022-08-03T08:25:03;7.78;;;2.85;;
32096;SDS011;18610;49.916;8.284;2022-08-03T08:27:30;14.95;;;2.67;;
32096;SDS011;18610;49.916;8.284;2022-08-03T08:29:58;8.43;;;3.05;;
32096;SDS011;18610;49.916;8.284;2022-08-03T08:32:29;9.45;;;2.78;;
32096;SDS011;18610;49.916;8.284;2022-08-03T08:34:55;6.78;;;2.55;;
32096;SDS011;18610;49.916;8.284;2022-08-03T08:37:22;5.93;;;2.17;;
32096;SDS011;18610;49.916;8.284;2022-08-03T08:39:49;11.27;;;3.03;;
32096;SDS011;18610;49.916;8.284;2022-08-03T08:42:16;5.75;;;2.40;;
32096;SDS011;18610;49.916;8.284;2022-08-03T08:44:43;3.88;;;2.58;;
32096;SDS011;18610;49.916;8.284;2022-08-03T08:47:11;3.08;;;2.00;;
32096;SDS011;18610;49.916;8.284;2022-08-03T08:49:39;3.83;;;2.05;;
32096;SDS011;18610;49.916;8.284;2022-08-03T08:52:07;7.07;;;2.28;;
32096;SDS011;18610;49.916;8.284;2022-08-03T08:54:35;5.78;;;2.15;;
32096;SDS011;18610;49.916;8.284;2022-08-03T08:57:05;3.50;;;2.00;;
32096;SDS011;18610;49.916;8.284;2022-08-03T08:59:32;9.32;;;2.15;;
32096;SDS011;18610;49.916;8.284;2022-08-03T09:02:01;4.28;;;1.95;;
32096;SDS011;18610;49.916;8.284;2022-08-03T09:04:29;7.18;;;1.77;;
32096;SDS011;18610;49.916;8.284;2022-08-03T09:06:56;2.35;;;2.10;;
32096;SDS011;18610;49.916;8.284;2022-08-03T09:09:23;2.92;;;2.30;;
32096;SDS011;18610;49.916;8.284;2022-08-03T09:11:50;2.55;;;2.17;;
32096;SDS011;18610;49.916;8.284;2022-08-03T09:14:16;5.68;;;2.20;;
32096;SDS011;18610;49.916;8.284;2022-08-03T09:19:31;8.65;;;1.70;;
32096;SDS011;18610;49.916;8.284;2022-08-03T09:22:08;2.08;;;1.88;;
32096;SDS011;18610;49.916;8.284;2022-08-03T09:24:37;5.55;;;1.67;;
32096;SDS011;18610;49.916;8.284;2022-08-03T09:27:19;6.78;;;2.17;;
32096;SDS011;18610;49.916;8.284;2022-08-03T09:29:46;3.80;;;2.30;;
32096;SDS011;18610;49.916;8.284;2022-08-03T09:32:14;8.02;;;2.70;;
32096;SDS011;18610;49.916;8.284;2022-08-03T09:34:45;3.08;;;1.90;;
32096;SDS011;18610;49.916;8.284;2022-08-03T09:37:13;5.53;;;2.30;;
32096;SDS011;18610;49.916;8.284;2022-08-03T09:39:41;3.50;;;2.92;;
32096;SDS011;18610;49.916;8.284;2022-08-03T09:42:10;5.38;;;2.08;;
32096;SDS011;18610;49.916;8.284;2022-08-03T09:44:38;1.67;;;1.52;;
32096;SDS011;18610;49.916;8.284;2022-08-03T09:47:07;7.85;;;2.15;;
32096;SDS011;18610;49.916;8.284;2022-08-03T09:49:35;3.58;;;1.45;;
32096;SDS011;18610;49.916;8.284;2022-08-03T09:52:12;2.13;;;1.92;;
32096;SDS011;18610;49.916;8.284;2022-08-03T09:54:39;11.88;;;4.15;;
32096;SDS011;18610;49.916;8.284;2022-08-03T09:57:07;4.40;;;3.17;;
32096;SDS011;18610;49.916;8.284;2022-08-03T09:59:44;2.75;;;2.15;;
32096;SDS011;18610;49.916;8.284;2022-08-03T10:02:19;3.20;;;2.35;;
32096;SDS011;18610;49.916;8.284;2022-08-03T10:04:47;1.98;;;1.75;;
32096;SDS011;18610;49.916;8.284;2022-08-03T10:07:18;5.70;;;4.32;;
32096;SDS011;18610;49.916;8.284;2022-08-03T10:09:55;10.60;;;3.78;;
32096;SDS011;18610;49.916;8.284;2022-08-03T10:12:23;4.35;;;2.30;;
32096;SDS011;18610;49.916;8.284;2022-08-03T10:14:51;5.95;;;4.97;;
32096;SDS011;18610;49.916;8.284;2022-08-03T10:17:18;2.50;;;2.30;;
32096;SDS011;18610;49.916;8.284;2022-08-03T10:19:46;5.70;;;2.50;;
32096;SDS011;18610;49.916;8.284;2022-08-03T10:22:15;4.20;;;1.50;;
32096;SDS011;18610;49.916;8.284;2022-08-03T10:24:49;3.13;;;2.08;;
32096;SDS011;18610;49.916;8.284;2022-08-03T10:27:19;1.73;;;1.60;;
32096;SDS011;18610;49.916;8.284;2022-08-03T10:29:49;4.93;;;1.70;;
32096;SDS011;18610;49.916;8.284;2022-08-03T10:32:21;5.93;;;2.10;;
32096;SDS011;18610;49.916;8.284;2022-08-03T10:34:51;3.85;;;1.80;;
32096;SDS011;18610;49.916;8.284;2022-08-03T10:37:25;3.70;;;1.60;;
32096;SDS011;18610;49.916;8.284;2022-08-03T10:39:57;4.82;;;1.58;;
32096;SDS011;18610;49.916;8.284;2022-08-03T10:42:25;4.22;;;1.50;;
32096;SDS011;18610;49.916;8.284;2022-08-03T10:44:59;9.35;;;1.58;;
32096;SDS011;18610;49.916;8.284;2022-08-03T10:47:29;1.73;;;1.63;;
32096;SDS011;18610;49.916;8.284;2022-08-03T10:49:58;2.10;;;1.90;;
32096;SDS011;18610;49.916;8.284;2022-08-03T10:52:27;3.83;;;2.10;;
32096;SDS011;18610;49.916;8.284;2022-08-03T10:54:53;6.13;;;1.80;;
32096;SDS011;18610;49.916;8.284;2022-08-03T10:57:47;5.22;;;1.50;;
32096;SDS011;18610;49.916;8.284;2022-08-03T11:00:16;3.72;;;2.47;;
32096;SDS011;18610;49.916;8.284;2022-08-03T11:03:00;3.28;;;1.45;;
32096;SDS011;18610;49.916;8.284;2022-08-03T11:05:31;3.20;;;1.85;;
32096;SDS011;18610;49.916;8.284;2022-08-03T11:11:00;1.60;;;1.48;;
32096;SDS011;18610;49.916;8.284;2022-08-03T11:13:55;1.77;;;1.48;;
32096;SDS011;18610;49.916;8.284;2022-08-03T11:16:22;4.57;;;1.50;;
32096;SDS011;18610;49.916;8.284;2022-08-03T11:18:55;3.90;;;2.30;;
32096;SDS011;18610;49.916;8.284;2022-08-03T11:24:06;2.33;;;1.90;;
32096;SDS011;18610;49.916;8.284;2022-08-03T11:26:33;2.70;;;1.75;;
32096;SDS011;18610;49.916;8.284;2022-08-03T11:31:54;6.20;;;1.48;;
32096;SDS011;18610;49.916;8.284;2022-08-03T11:34:21;3.47;;;2.00;;
32096;SDS011;18610;49.916;8.284;2022-08-03T11:39:47;5.80;;;1.52;;
32096;SDS011;18610;49.916;8.284;2022-08-03T11:45:08;2.65;;;1.50;;
32096;SDS011;18610;49.916;8.284;2022-08-03T11:47:35;3.70;;;1.42;;
32096;SDS011;18610;49.916;8.284;2022-08-03T11:50:04;13.35;;;3.80;;
32096;SDS011;18610;49.916;8.284;2022-08-03T11:52:35;3.17;;;2.92;;
32096;SDS011;18610;49.916;8.284;2022-08-03T11:55:09;2.85;;;2.60;;
32096;SDS011;18610;49.916;8.284;2022-08-03T11:57:36;5.43;;;1.70;;
32096;SDS011;18610;49.916;8.284;2022-08-03T12:00:17;1.98;;;1.55;;
32096;SDS011;18610;49.916;8.284;2022-08-03T12:02:52;2.97;;;1.83;;
32096;SDS011;18610;49.916;8.284;2022-08-03T12:05:42;10.00;;;2.63;;
32096;SDS011;18610;49.916;8.284;2022-08-03T12:08:13;4.93;;;2.78;;
32096;SDS011;18610;49.916;8.284;2022-08-03T12:10:47;4.15;;;1.95;;
32096;SDS011;18610;49.916;8.284;2022-08-03T12:13:15;1.45;;;1.20;;
32096;SDS011;18610;49.916;8.284;2022-08-03T12:15:42;2.05;;;1.52;;
32096;SDS011;18610;49.916;8.284;2022-08-03T12:18:16;2.28;;;1.48;;
32096;SDS011;18610;49.916;8.284;2022-08-03T12:20:44;2.33;;;1.60;;
32096;SDS011;18610;49.916;8.284;2022-08-03T12:23:11;1.52;;;1.08;;
32096;SDS011;18610;49.916;8.284;2022-08-03T12:25:40;11.98;;;1.40;;
32096;SDS011;18610;49.916;8.284;2022-08-03T12:28:10;5.25;;;1.58;;
32096;SDS011;18610;49.916;8.284;2022-08-03T12:30:41;1.48;;;1.38;;
32096;SDS011;18610;49.916;8.284;2022-08-03T12:33:21;8.75;;;1.77;;
32096;SDS011;18610;49.916;8.284;2022-08-03T12:35:50;1.97;;;1.33;;
32096;SDS011;18610;49.916;8.284;2022-08-03T12:38:29;2.30;;;1.63;;
32096;SDS011;18610;49.916;8.284;2022-08-03T12:41:00;11.90;;;1.67;;
32096;SDS011;18610;49.916;8.284;2022-08-03T12:43:29;3.75;;;1.42;;
32096;SDS011;18610;49.916;8.284;2022-08-03T12:46:12;2.15;;;1.30;;
32096;SDS011;18610;49.916;8.284;2022-08-03T12:51:31;4.35;;;2.10;;
32096;SDS011;18610;49.916;8.284;2022-08-03T12:54:01;1.85;;;1.35;;
32096;SDS011;18610;49.916;8.284;2022-08-03T12:56:28;6.18;;;1.45;;
32096;SDS011;18610;49.916;8.284;2022-08-03T12:58:56;3.63;;;1.80;;
32096;SDS011;18610;49.916;8.284;2022-08-03T13:01:23;1.50;;;1.40;;
32096;SDS011;18610;49.916;8.284;2022-08-03T13:03:51;1.77;;;1.40;;
32096;SDS011;18610;49.916;8.284;2022-08-03T13:06:19;3.03;;;1.70;;
32096;SDS011;18610;49.916;8.284;2022-08-03T13:08:48;4.05;;;1.45;;
32096;SDS011;18610;49.916;8.284;2022-08-03T13:11:16;4.93;;;1.30;;
32096;SDS011;18610;49.916;8.284;2022-08-03T13:13:44;7.65;;;2.35;;
32096;SDS011;18610;49.916;8.284;2022-08-03T13:16:12;1.15;;;1.15;;
32096;SDS011;18610;49.916;8.284;2022-08-03T13:18:39;3.00;;;1.40;;
32096;SDS011;18610;49.916;8.284;2022-08-03T13:21:06;4.28;;;1.90;;
32096;SDS011;18610;49.916;8.284;2022-08-03T13:23:33;5.10;;;2.58;;
32096;SDS011;18610;49.916;8.284;2022-08-03T13:26:00;2.60;;;1.95;;
32096;SDS011;18610;49.916;8.284;2022-08-03T13:28:26;4.05;;;1.60;;
32096;SDS011;18610;49.916;8.284;2022-08-03T13:30:53;3.50;;;1.50;;
32096;SDS011;18610;49.916;8.284;2022-08-03T13:33:21;3.53;;;1.83;;
32096;SDS011;18610;49.916;8.284;2022-08-03T13:35:48;3.70;;;1.80;;
32096;SDS011;18610;49.916;8.284;2022-08-03T13:38:15;7.35;;;1.60;;
32096;SDS011;18610;49.916;8.284;2022-08-03T13:40:42;1.75;;;1.48;;
32096;SDS011;18610;49.916;8.284;2022-08-03T13:43:08;3.28;;;1.55;;
32096;SDS011;18610;49.916;8.284;2022-08-03T13:45:36;4.85;;;1.23;;
32096;SDS011;18610;49.916;8.284;2022-08-03T13:48:03;3.53;;;1.40;;
32096;SDS011;18610;49.916;8.284;2022-08-03T13:50:31;6.95;;;1.58;;
32096;SDS011;18610;49.916;8.284;2022-08-03T13:52:58;5.68;;;1.42;;
32096;SDS011;18610;49.916;8.284;2022-08-03T13:55:25;6.97;;;1.52;;
32096;SDS011;18610;49.916;8.284;2022-08-03T13:57:52;1.40;;;1.30;;
32096;SDS011;18610;49.916;8.284;2022-08-03T14:00:18;6.35;;;1.80;;
32096;SDS011;18610;49.916;8.284;2022-08-03T14:02:48;2.08;;;1.45;;
32096;SDS011;18610;49.916;8.284;2022-08-03T14:05:14;1.40;;;1.30;;
32096;SDS011;18610;49.916;8.284;2022-08-03T14:07:42;4.03;;;1.40;;
32096;SDS011;18610;49.916;8.284;2022-08-03T14:10:09;3.05;;;1.42;;
32096;SDS011;18610;49.916;8.284;2022-08-03T14:12:36;6.43;;;3.55;;
32096;SDS011;18610;49.916;8.284;2022-08-03T14:15:03;2.72;;;1.02;;
32096;SDS011;18610;49.916;8.284;2022-08-03T14:17:33;2.22;;;1.50;;
32096;SDS011;18610;49.916;8.284;2022-08-03T14:20:00;2.15;;;1.35;;
32096;SDS011;18610;49.916;8.284;2022-08-03T14:22:29;1.88;;;1.20;;
32096;SDS011;18610;49.916;8.284;2022-08-03T14:24:57;3.83;;;2.00;;
32096;SDS011;18610;49.916;8.284;2022-08-03T14:27:24;6.22;;;1.38;;
32096;SDS011;18610;49.916;8.284;2022-08-03T14:29:51;5.80;;;2.63;;
32096;SDS011;18610;49.916;8.284;2022-08-03T14:32:17;5.40;;;1.48;;
32096;SDS011;18610;49.916;8.284;2022-08-03T14:34:44;3.38;;;1.77;;
32096;SDS011;18610;49.916;8.284;2022-08-03T14:37:11;4.03;;;1.80;;
32096;SDS011;18610;49.916;8.284;2022-08-03T14:39:38;2.25;;;1.23;;
32096;SDS011;18610;49.916;8.284;2022-08-03T14:42:06;4.57;;;1.70;;
32096;SDS011;18610;49.916;8.284;2022-08-03T14:44:33;3.00;;;1.90;;
32096;SDS011;18610;49.916;8.284;2022-08-03T14:47:00;3.97;;;1.90;;
32096;SDS011;18610;49.916;8.284;2022-08-03T14:49:27;5.18;;;2.28;;
32096;SDS011;18610;49.916;8.284;2022-08-03T14:51:53;1.95;;;1.30;;
32096;SDS011;18610;49.916;8.284;2022-08-03T14:54:20;2.03;;;1.40;;
32096;SDS011;18610;49.916;8.284;2022-08-03T14:56:47;4.40;;;1.38;;
32096;SDS011;18610;49.916;8.284;2022-08-03T14:59:15;2.40;;;1.55;;
32096;SDS011;18610;49.916;8.284;2022-08-03T15:01:42;1.55;;;1.35;;
32096;SDS011;18610;49.916;8.284;2022-08-03T15:04:09;2.00;;;1.38;;
32096;SDS011;18610;49.916;8.284;2022-08-03T15:06:35;2.65;;;1.40;;
32096;SDS011;18610;49.916;8.284;2022-08-03T15:09:02;2.85;;;1.90;;
32096;SDS011;18610;49.916;8.284;2022-08-03T15:11:29;2.45;;;1.52;;
32096;SDS011;18610;49.916;8.284;2022-08-03T15:13:56;5.20;;;2.75;;
32096;SDS011;18610;49.916;8.284;2022-08-03T15:16:24;2.38;;;1.85;;